Time;durP1;ratioP1;P1;durP2;ratioP2;P2;SDS_P1;SDS_P2;PMS_P1;PMS_P2;Temp;Humidity;BMP_temperature;BMP_pressure;BME280_temperature;BME280_humidity;BME280_pressure;Samples;Min_cycle;Max_cycle;Signal;HPM_P1;HPM_P2
2023/12/09 00:00:29;;;;;;;9.85;2.60;;;;;;;-145.69;63.32;52313.69;5110977;28;20428;-85
2023/12/09 00:02:55;;;;;;;15.07;2.40;;;;;;;-145.69;63.09;52319.63;5113923;28;20233;-85
2023/12/09 00:05:22;;;;;;;6.23;2.27;;;;;;;-145.69;63.48;52317.66;5115139;28;20270;-85
2023/12/09 00:07:49;;;;;;;4.93;2.40;;;;;;;-145.69;63.37;52333.47;5110357;28;20194;-84
2023/12/09 00:10:15;;;;;;;8.97;2.30;;;;;;;-145.69;63.72;52337.44;5107740;28;20202;-84
2023/12/09 00:12:43;;;;;;;4.47;1.80;;;;;;;-145.69;63.34;52351.31;5106700;28;20226;-84
2023/12/09 00:15:10;;;;;;;9.87;2.43;;;;;;;-145.69;64.76;52329.53;5100560;28;20217;-84
2023/12/09 00:17:37;;;;;;;9.83;2.10;;;;;;;-145.69;63.89;52305.75;5098208;28;20210;-84
2023/12/09 00:20:05;;;;;;;11.80;1.70;;;;;;;-145.69;63.88;52313.69;5100445;28;20736;-84
2023/12/09 00:22:31;;;;;;;9.87;2.57;;;;;;;-145.69;64.18;52341.41;5103475;28;20206;-85
2023/12/09 00:24:58;;;;;;;5.67;1.90;;;;;;;-145.69;63.39;52329.53;5099609;28;20194;-85
2023/12/09 00:27:24;;;;;;;10.70;1.93;;;;;;;-145.69;63.81;52313.69;5103514;28;20201;-85
2023/12/09 00:29:53;;;;;;;7.67;2.40;;;;;;;-145.69;63.75;52323.59;5108797;28;20289;-85
2023/12/09 00:32:19;;;;;;;6.63;1.77;;;;;;;-145.69;64.04;52307.75;5105435;28;20681;-84
2023/12/09 00:34:46;;;;;;;8.67;1.70;;;;;;;-145.69;64.32;52345.38;5103625;28;20203;-84
2023/12/09 00:37:13;;;;;;;6.57;1.87;;;;;;;-145.69;64.83;52331.50;5107000;28;20265;-84
2023/12/09 00:39:39;;;;;;;5.03;1.70;;;;;;;-145.69;64.74;52301.81;5102380;28;20254;-84
2023/12/09 00:42:06;;;;;;;6.13;1.67;;;;;;;-145.69;64.29;52365.16;5106010;28;20206;-84
2023/12/09 00:44:34;;;;;;;8.10;1.60;;;;;;;-145.69;64.80;52329.53;5106300;28;20617;-84
2023/12/09 00:47:02;;;;;;;10.10;1.53;;;;;;;-145.69;64.71;52329.53;5106279;28;20216;-84
2023/12/09 00:49:29;;;;;;;10.93;2.10;;;;;;;-145.69;64.42;52297.84;5103854;28;20221;-84
2023/12/09 00:51:56;;;;;;;10.90;2.20;;;;;;;-145.69;63.74;52333.47;5104690;28;20222;-84
2023/12/09 00:54:22;;;;;;;7.77;1.60;;;;;;;-145.69;63.63;52317.66;5103901;28;20261;-84
2023/12/09 00:56:49;;;;;;;10.60;1.70;;;;;;;-145.69;63.85;52315.66;5109391;28;20276;-84
2023/12/09 00:59:16;;;;;;;3.77;1.53;;;;;;;-145.69;64.41;52341.41;5109336;28;20285;-84
2023/12/09 01:01:42;;;;;;;6.10;1.37;;;;;;;-145.69;64.56;52285.97;5120753;28;20209;-84
2023/12/09 01:04:11;;;;;;;5.47;1.50;;;;;;;-145.69;64.51;52313.69;5130494;28;20289;-84
2023/12/09 01:06:40;;;;;;;7.80;1.77;;;;;;;-145.69;64.79;52305.75;5120938;28;20208;-84
2023/12/09 01:09:07;;;;;;;5.70;1.30;;;;;;;-145.69;64.55;52317.66;5111570;28;20218;-84
2023/12/09 01:11:34;;;;;;;10.83;1.50;;;;;;;-145.69;64.09;52305.75;5112586;28;20240;-84
2023/12/09 01:14:00;;;;;;;8.20;1.77;;;;;;;-145.69;64.18;52317.66;5112040;28;20237;-85
2023/12/09 01:16:29;;;;;;;6.70;1.53;;;;;;;-145.69;64.41;52353.28;5112467;28;20226;-84
2023/12/09 01:18:59;;;;;;;4.00;1.50;;;;;;;-145.69;64.34;52321.59;5112630;28;20194;-84
2023/12/09 01:21:27;;;;;;;3.63;1.30;;;;;;;-145.69;64.60;52321.59;5111540;28;20202;-84
2023/12/09 01:23:54;;;;;;;8.33;1.87;;;;;;;-145.69;64.06;52335.47;5110218;28;20216;-84
2023/12/09 01:26:20;;;;;;;5.00;1.63;;;;;;;-145.69;63.90;52353.28;5111191;28;20194;-84
2023/12/09 01:28:52;;;;;;;5.53;1.77;;;;;;;-145.69;63.06;52317.66;5112359;28;20185;-85
2023/12/09 01:31:19;;;;;;;3.67;1.70;;;;;;;-145.69;63.20;52293.88;5111480;28;20221;-85
2023/12/09 01:33:56;;;;;;;3.40;1.30;;;;;;;-145.69;63.22;52333.47;5113060;28;20266;-85
2023/12/09 01:36:23;;;;;;;7.20;1.60;;;;;;;-145.69;63.36;52339.44;5112726;28;20201;-85
2023/12/09 01:38:53;;;;;;;6.13;1.70;;;;;;;-145.69;63.24;52305.75;5109971;28;20770;-85
2023/12/09 01:41:23;;;;;;;4.63;1.63;;;;;;;-145.69;62.92;52333.47;5111860;28;20199;-85
2023/12/09 01:43:51;;;;;;;2.57;1.40;;;;;;;-145.69;62.71;52335.47;5112344;28;20202;-84
2023/12/09 01:46:20;;;;;;;3.00;1.20;;;;;;;-145.69;62.66;52285.97;5113417;28;20202;-85
2023/12/09 01:48:48;;;;;;;7.47;1.67;;;;;;;-145.69;62.89;52297.84;5114295;28;20206;-84
2023/12/09 01:51:17;;;;;;;3.70;1.33;;;;;;;-145.69;62.46;52305.75;5114932;28;20249;-84
2023/12/09 01:53:50;;;;;;;8.83;1.30;;;;;;;-145.69;62.79;52303.78;5114885;28;20189;-84
2023/12/09 01:56:21;;;;;;;4.63;1.33;;;;;;;-145.69;62.75;52299.81;5114292;28;20198;-84
2023/12/09 01:58:48;;;;;;;5.53;1.63;;;;;;;-145.69;62.78;52323.59;5114313;28;20198;-85
2023/12/09 02:01:18;;;;;;;6.30;1.50;;;;;;;-145.69;62.94;52293.88;5114122;28;20190;-85
2023/12/09 02:03:45;;;;;;;14.33;1.70;;;;;;;-145.69;63.02;52305.75;5114395;28;20221;-85
2023/12/09 02:06:13;;;;;;;5.23;1.00;;;;;;;-145.69;63.32;52266.16;5118303;28;20332;-85
2023/12/09 02:08:40;;;;;;;4.40;1.10;;;;;;;-145.69;62.70;52305.75;5119947;28;20178;-85
2023/12/09 02:11:31;;;;;;;4.10;0.87;;;;;;;-145.69;62.69;52319.63;5119334;28;20235;-85
2023/12/09 02:14:07;;;;;;;7.80;1.40;;;;;;;-145.69;62.60;52305.75;5119335;28;20233;-85
2023/12/09 02:16:39;;;;;;;4.70;1.50;;;;;;;-145.69;61.99;52289.91;5117398;28;20202;-85
2023/12/09 02:19:11;;;;;;;3.77;1.30;;;;;;;-145.69;61.56;52309.72;5117398;28;20235;-85
2023/12/09 02:21:58;;;;;;;6.33;1.10;;;;;;;-145.69;62.12;52331.50;5125039;28;20247;-85
2023/12/09 02:24:30;;;;;;;2.50;1.00;;;;;;;-145.69;63.10;52317.66;5138914;28;20236;-85
2023/12/09 02:27:02;;;;;;;3.73;1.10;;;;;;;-145.69;62.51;52315.66;5138159;28;20199;-85
2023/12/09 02:29:34;;;;;;;4.60;1.40;;;;;;;-145.69;62.27;52357.25;5132312;28;20210;-85
2023/12/09 02:32:07;;;;;;;5.77;1.80;;;;;;;-145.69;62.69;52317.66;5135842;28;20229;-84
2023/12/09 02:34:39;;;;;;;2.67;1.20;;;;;;;-145.69;62.46;52323.59;5136440;28;20197;-85
2023/12/09 02:37:12;;;;;;;4.53;1.10;;;;;;;-145.69;62.34;52325.56;5136781;28;20204;-85
2023/12/09 02:39:41;;;;;;;4.13;1.20;;;;;;;-145.69;63.55;52331.50;5123559;28;20226;-85
2023/12/09 02:42:08;;;;;;;4.53;1.33;;;;;;;-145.69;63.69;52317.66;5109729;28;20265;-85
2023/12/09 02:44:35;;;;;;;4.67;1.10;;;;;;;-145.69;63.26;52365.16;5110048;28;20210;-85
2023/12/09 02:47:07;;;;;;;5.00;1.30;;;;;;;-145.69;63.55;52293.88;5111499;28;20228;-85
2023/12/09 02:49:34;;;;;;;3.63;1.23;;;;;;;-145.69;63.26;52363.19;5110225;28;20205;-85
2023/12/09 02:52:01;;;;;;;3.20;1.00;;;;;;;-145.69;63.72;52371.13;5108441;28;20244;-85
2023/12/09 02:54:27;;;;;;;4.50;0.93;;;;;;;-145.69;63.38;52349.31;5105912;28;20202;-84
2023/12/09 02:56:55;;;;;;;2.80;1.20;;;;;;;-145.69;63.64;52297.84;5109349;28;20202;-85
2023/12/09 02:59:22;;;;;;;5.33;1.27;;;;;;;-145.69;63.89;52325.56;5106224;28;20210;-85
2023/12/09 03:01:51;;;;;;;5.10;1.10;;;;;;;-145.69;63.54;52287.94;5105311;28;20705;-85
2023/12/09 03:04:20;;;;;;;7.00;1.23;;;;;;;-145.69;63.62;52337.44;5107500;28;20206;-85
2023/12/09 03:06:47;;;;;;;1.53;1.07;;;;;;;-145.69;63.35;52325.56;5108506;28;20194;-85
2023/12/09 03:09:14;;;;;;;4.33;1.00;;;;;;;-145.69;62.81;52341.41;5109249;28;20254;-85
2023/12/09 03:11:41;;;;;;;2.90;0.90;;;;;;;-145.69;62.04;52305.75;5111893;28;20265;-85
2023/12/09 03:14:11;;;;;;;2.47;1.03;;;;;;;-145.69;61.78;52325.56;5110108;28;20222;-85
2023/12/09 03:16:39;;;;;;;4.20;0.93;;;;;;;-145.69;61.80;52295.84;5112027;28;20300;-85
2023/12/09 03:19:05;;;;;;;1.77;0.90;;;;;;;-145.69;61.59;52329.53;5111898;28;20198;-85
2023/12/09 03:21:32;;;;;;;1.97;0.83;;;;;;;-145.69;62.26;52333.47;5115270;28;20205;-85
2023/12/09 03:24:00;;;;;;;5.27;1.00;;;;;;;-145.69;62.42;52369.13;5116240;28;20209;-85
2023/12/09 03:26:30;;;;;;;25.03;1.60;;;;;;;-145.69;62.56;52341.41;5116832;27;20206;-85
2023/12/09 03:28:57;;;;;;;3.83;1.90;;;;;;;-145.69;62.04;52331.50;5115909;28;20245;-84
2023/12/09 03:31:25;;;;;;;4.23;1.70;;;;;;;-145.69;62.29;52323.59;5108215;28;20206;-84
2023/12/09 03:33:51;;;;;;;2.73;1.57;;;;;;;-145.69;63.04;52355.28;5111860;28;20210;-85
2023/12/09 03:36:18;;;;;;;2.63;1.10;;;;;;;-145.69;65.12;52351.31;5113289;28;20230;-85
2023/12/09 03:38:45;;;;;;;3.20;1.20;;;;;;;-145.69;64.69;52333.47;5112447;28;20285;-84
2023/12/09 03:41:12;;;;;;;3.13;1.50;;;;;;;-145.69;64.56;52347.34;5112929;28;20236;-84
2023/12/09 03:43:39;;;;;;;5.13;1.40;;;;;;;-145.69;65.36;52321.59;5107184;28;20208;-85
2023/12/09 03:46:06;;;;;;;2.23;1.30;;;;;;;-145.69;65.38;52353.28;5114877;28;20198;-84
2023/12/09 03:48:35;;;;;;;4.17;1.40;;;;;;;-145.69;65.62;52365.16;5114108;28;20209;-84
2023/12/09 03:51:01;;;;;;;3.37;1.53;;;;;;;-145.69;65.37;52315.66;5114020;28;20206;-85
2023/12/09 03:53:28;;;;;;;7.13;1.80;;;;;;;-145.69;65.40;52343.38;5113930;28;20216;-84
2023/12/09 03:56:05;;;;;;;3.93;1.53;;;;;;;-145.69;65.00;52331.50;5119655;28;20221;-85
2023/12/09 03:58:32;;;;;;;2.10;1.23;;;;;;;-145.69;64.66;52349.31;5133720;28;20225;-85
2023/12/09 04:00:59;;;;;;;3.97;1.07;;;;;;;-145.69;64.36;52321.59;5119385;27;20236;-85
2023/12/09 04:03:27;;;;;;;2.40;1.30;;;;;;;-145.69;63.84;52365.16;5113921;27;20206;-85
2023/12/09 04:06:10;;;;;;;3.93;1.10;;;;;;;-145.69;63.66;52353.28;5112122;28;20289;-84
2023/12/09 04:08:36;;;;;;;1.23;0.90;;;;;;;-145.69;63.75;52353.28;5112168;28;20228;-84
2023/12/09 04:11:04;;;;;;;2.00;1.07;;;;;;;-145.69;64.11;52347.34;5112237;28;20254;-84
2023/12/09 04:13:32;;;;;;;3.50;1.10;;;;;;;-145.69;63.74;52351.31;5113599;28;20226;-84
2023/12/09 04:15:58;;;;;;;4.45;1.30;;;;;;;-145.69;65.46;52321.59;5111504;28;20440;-84
2023/12/09 04:18:25;;;;;;;4.63;1.50;;;;;;;-145.69;64.76;52349.31;5113258;27;20221;-84
2023/12/09 04:20:52;;;;;;;5.97;1.60;;;;;;;-145.69;64.85;52349.31;5112797;28;20198;-84
2023/12/09 04:23:21;;;;;;;7.17;1.40;;;;;;;-145.69;64.59;52329.53;5112060;27;20209;-84
2023/12/09 04:25:47;;;;;;;3.33;1.33;;;;;;;-145.69;64.69;52311.69;5109938;27;20209;-84
2023/12/09 04:28:15;;;;;;;6.30;1.33;;;;;;;-145.69;64.86;52315.66;5106173;28;20204;-84
2023/12/09 04:30:42;;;;;;;3.30;1.37;;;;;;;-145.69;64.16;52341.41;5108121;28;20194;-84
2023/12/09 04:33:08;;;;;;;2.43;1.47;;;;;;;-145.69;63.59;52345.38;5105879;28;20230;-83
2023/12/09 04:35:35;;;;;;;3.57;1.30;;;;;;;-145.69;63.69;52353.28;5105316;28;20209;-84
2023/12/09 04:38:03;;;;;;;2.00;1.27;;;;;;;-145.69;63.54;52345.38;5103040;28;20206;-84
2023/12/09 04:40:31;;;;;;;5.23;1.30;;;;;;;-145.69;64.24;52317.66;5105730;28;20608;-84
2023/12/09 04:42:57;;;;;;;5.00;1.40;;;;;;;-145.69;64.79;52333.47;5107621;28;20199;-84
2023/12/09 04:45:24;;;;;;;3.83;1.67;;;;;;;-145.69;65.90;52349.31;5107250;28;20198;-84
2023/12/09 04:47:51;;;;;;;4.40;1.73;;;;;;;-145.69;65.63;52343.38;5107405;28;20200;-83
2023/12/09 04:50:18;;;;;;;5.10;1.50;;;;;;;-145.69;64.95;52355.28;5104487;28;20194;-83
2023/12/09 04:52:46;;;;;;;2.47;1.20;;;;;;;-145.69;64.77;52329.53;5105355;28;20236;-83
2023/12/09 04:55:13;;;;;;;1.87;1.00;;;;;;;-145.69;64.64;52379.03;5103633;28;20198;-83
2023/12/09 04:57:41;;;;;;;2.67;1.60;;;;;;;-145.69;65.17;52321.59;5104448;28;20312;-84
2023/12/09 05:00:10;;;;;;;3.67;1.33;;;;;;;-145.69;64.95;52345.38;5108281;28;20233;-84
2023/12/09 05:02:37;;;;;;;2.80;1.77;;;;;;;-145.69;65.14;52353.28;5107834;28;20198;-84
2023/12/09 05:05:05;;;;;;;2.13;1.40;;;;;;;-145.69;65.56;52327.53;5108843;28;20206;-84
2023/12/09 05:07:31;;;;;;;6.50;1.67;;;;;;;-145.69;65.52;52353.28;5109209;28;20227;-84
2023/12/09 05:09:58;;;;;;;4.57;1.50;;;;;;;-145.69;65.75;52357.25;5108137;28;20611;-84
2023/12/09 05:12:26;;;;;;;5.73;1.70;;;;;;;-145.69;66.03;52333.47;5105543;28;20229;-84
2023/12/09 05:14:54;;;;;;;4.97;1.87;;;;;;;-145.69;66.28;52359.22;5108340;28;20230;-85
2023/12/09 05:17:23;;;;;;;3.87;1.73;;;;;;;-145.69;66.17;52369.13;5104046;28;20216;-84
2023/12/09 05:19:50;;;;;;;7.33;1.63;;;;;;;-145.69;65.96;52349.31;5107318;28;20210;-83
2023/12/09 05:22:20;;;;;;;2.53;1.70;;;;;;;-145.69;66.03;52327.53;5109399;28;20253;-84
2023/12/09 05:24:48;;;;;;;5.97;1.90;;;;;;;-145.69;66.11;52353.28;5110395;28;20702;-84
2023/12/09 05:27:17;;;;;;;5.63;2.07;;;;;;;-145.69;65.88;52321.59;5102851;28;20198;-84
2023/12/09 05:29:44;;;;;;;4.27;1.67;;;;;;;-145.69;65.67;52323.59;5105788;28;20308;-84
2023/12/09 05:32:12;;;;;;;6.17;1.80;;;;;;;-145.69;65.83;52333.47;5108254;28;20202;-84
2023/12/09 05:34:39;;;;;;;3.43;1.73;;;;;;;-145.69;64.96;52321.59;5106830;28;20205;-84
2023/12/09 05:37:05;;;;;;;6.43;2.10;;;;;;;-145.69;65.41;52345.38;5109417;28;20274;-84
2023/12/09 05:39:32;;;;;;;4.77;2.20;;;;;;;-145.69;65.83;52325.56;5106939;28;20205;-84
2023/12/09 05:41:59;;;;;;;3.73;1.90;;;;;;;-145.69;65.61;52373.09;5110925;28;20711;-84
2023/12/09 05:44:25;;;;;;;5.70;1.60;;;;;;;-145.69;65.87;52301.81;5106020;28;20218;-84
2023/12/09 05:46:52;;;;;;;5.10;1.63;;;;;;;-145.69;65.77;52333.47;5107300;28;20632;-84
2023/12/09 05:49:20;;;;;;;5.00;1.70;;;;;;;-145.69;65.79;52351.31;5109221;28;20190;-84
2023/12/09 05:51:47;;;;;;;5.13;1.70;;;;;;;-145.69;65.33;52353.28;5105086;28;20288;-84
2023/12/09 05:54:14;;;;;;;4.10;1.70;;;;;;;-145.69;65.26;52337.44;5108718;28;20250;-84
2023/12/09 05:56:41;;;;;;;2.47;1.70;;;;;;;-145.69;65.04;52319.63;5108470;28;20270;-84
2023/12/09 05:59:08;;;;;;;8.07;1.87;;;;;;;-145.69;65.49;52353.28;5107184;28;20249;-83
2023/12/09 06:01:34;;;;;;;5.67;1.67;;;;;;;-145.69;65.43;52337.44;5110212;28;20201;-84
2023/12/09 06:04:01;;;;;;;3.40;1.60;;;;;;;-145.69;65.70;52345.38;5107433;28;20223;-84
2023/12/09 06:06:29;;;;;;;7.97;1.70;;;;;;;-145.69;65.06;52345.38;5107332;28;20683;-84
2023/12/09 06:08:58;;;;;;;2.77;1.77;;;;;;;-145.69;65.11;52337.44;5111064;28;20290;-84
2023/12/09 06:11:25;;;;;;;5.60;1.80;;;;;;;-145.69;65.06;52305.75;5111188;28;20209;-84
2023/12/09 06:13:52;;;;;;;8.77;1.53;;;;;;;-145.69;65.50;52333.47;5111404;28;20229;-85
2023/12/09 06:16:19;;;;;;;6.10;1.60;;;;;;;-145.69;65.43;52317.66;5112458;28;20228;-84
2023/12/09 06:18:49;;;;;;;2.57;1.60;;;;;;;-145.69;65.11;52335.47;5112893;28;20190;-84
2023/12/09 06:21:20;;;;;;;2.20;1.20;;;;;;;-145.69;65.69;52345.38;5112010;28;20197;-84
2023/12/09 06:23:51;;;;;;;6.20;1.40;;;;;;;-145.69;64.97;52337.44;5088925;28;20662;-83
2023/12/09 06:26:19;;;;;;;5.33;1.70;;;;;;;-145.69;65.37;52339.44;5101713;28;20218;-84
2023/12/09 06:28:51;;;;;;;3.17;1.50;;;;;;;-145.69;65.31;52351.31;5111179;28;20205;-84
2023/12/09 06:31:18;;;;;;;3.77;1.60;;;;;;;-145.69;65.36;52353.28;5112606;28;20289;-84
2023/12/09 06:33:44;;;;;;;5.07;1.60;;;;;;;-145.69;65.24;52321.59;5112622;28;20297;-84
2023/12/09 06:36:14;;;;;;;7.07;1.60;;;;;;;-145.69;65.26;52325.56;5113694;28;20732;-84
2023/12/09 06:38:44;;;;;;;6.73;1.60;;;;;;;-145.69;65.46;52341.41;5113233;28;20205;-84
2023/12/09 06:41:14;;;;;;;5.87;1.83;;;;;;;-145.69;65.88;52335.47;5112906;28;20206;-84
2023/12/09 06:43:40;;;;;;;4.93;1.33;;;;;;;-145.69;65.41;52351.31;5112605;28;20289;-84
2023/12/09 06:46:07;;;;;;;6.57;1.73;;;;;;;-145.69;65.73;52345.38;5113749;28;20214;-84
2023/12/09 06:48:37;;;;;;;9.63;1.67;;;;;;;-145.69;65.58;52343.38;5114034;28;20188;-84
2023/12/09 06:51:07;;;;;;;4.17;1.50;;;;;;;-145.69;65.46;52337.44;5106916;28;20179;-84
2023/12/09 06:53:33;;;;;;;10.37;1.80;;;;;;;-145.69;65.00;52337.44;5094138;28;20226;-84
2023/12/09 06:56:03;;;;;;;8.37;1.60;;;;;;;-145.69;65.02;52301.81;5105004;28;20190;-84
2023/12/09 06:58:32;;;;;;;6.27;1.90;;;;;;;-145.69;65.89;52337.44;5114205;28;20210;-84
2023/12/09 07:00:59;;;;;;;2.90;1.57;;;;;;;-145.69;65.61;52311.69;5111183;28;20202;-84
2023/12/09 07:03:26;;;;;;;6.10;2.03;;;;;;;-145.69;64.81;52331.50;5114226;28;20262;-84
2023/12/09 07:05:52;;;;;;;6.77;1.90;;;;;;;-145.69;65.01;52349.31;5112888;28;20202;-84
2023/12/09 07:08:19;;;;;;;3.33;1.70;;;;;;;-145.69;65.00;52337.44;5111367;28;20249;-84
2023/12/09 07:10:46;;;;;;;5.77;1.93;;;;;;;-145.69;65.22;52355.28;5109952;28;20205;-84
2023/12/09 07:13:12;;;;;;;5.93;1.73;;;;;;;-145.69;65.40;52333.47;5111053;28;20234;-84
2023/12/09 07:15:40;;;;;;;5.50;2.40;;;;;;;-145.69;64.93;52297.84;5112448;28;20198;-84
2023/12/09 07:18:07;;;;;;;9.50;2.10;;;;;;;-145.69;64.18;52313.69;5113003;28;20226;-84
2023/12/09 07:20:34;;;;;;;3.40;1.80;;;;;;;-145.69;64.61;52331.50;5113124;28;20198;-84
2023/12/09 07:23:01;;;;;;;6.37;2.27;;;;;;;-145.69;65.12;52283.97;5113041;28;20213;-84
2023/12/09 07:25:28;;;;;;;5.30;2.00;;;;;;;-145.69;65.16;52343.38;5114177;28;20194;-85
2023/12/09 07:27:54;;;;;;;9.27;2.13;;;;;;;-145.69;65.14;52329.53;5114188;27;20206;-84
2023/12/09 07:30:21;;;;;;;8.83;2.20;;;;;;;-145.69;64.60;52329.53;5112582;28;20236;-84
2023/12/09 07:32:49;;;;;;;4.27;1.93;;;;;;;-145.69;64.21;52333.47;5113528;28;20186;-85
2023/12/09 07:35:17;;;;;;;6.60;2.10;;;;;;;-145.69;64.86;52333.47;5111532;28;20194;-85
2023/12/09 07:37:44;;;;;;;3.77;1.90;;;;;;;-145.69;64.33;52353.28;5113366;28;20236;-84
2023/12/09 07:40:12;;;;;;;5.60;2.40;;;;;;;-145.69;64.13;52333.47;5110826;28;20178;-84
2023/12/09 07:42:39;;;;;;;6.23;2.10;;;;;;;-145.69;64.11;52343.38;5110557;27;20211;-84
2023/12/09 07:45:07;;;;;;;7.17;2.00;;;;;;;-145.69;64.66;52297.84;5108278;28;20610;-84
2023/12/09 07:47:33;;;;;;;4.53;1.93;;;;;;;-145.69;64.29;52309.72;5106272;28;20198;-84
2023/12/09 07:50:01;;;;;;;10.50;2.37;;;;;;;-145.69;64.97;52361.22;5105941;28;20281;-84
2023/12/09 07:52:28;;;;;;;3.43;2.20;;;;;;;-145.69;64.43;52353.28;5104431;28;20243;-84
2023/12/09 07:54:55;;;;;;;7.23;2.17;;;;;;;-145.69;64.18;52321.59;5106750;28;20222;-84
2023/12/09 07:57:22;;;;;;;6.57;2.50;;;;;;;-145.69;64.36;52347.34;5108814;28;20204;-84
2023/12/09 07:59:48;;;;;;;5.40;2.57;;;;;;;-145.69;63.99;52325.56;5110005;28;20198;-84
2023/12/09 08:02:15;;;;;;;3.00;2.10;;;;;;;-145.69;63.59;52365.16;5105844;28;20198;-84
2023/12/09 08:04:41;;;;;;;5.20;2.60;;;;;;;-145.69;63.74;52289.91;5107122;28;20201;-84
2023/12/09 08:07:09;;;;;;;4.10;2.50;;;;;;;-145.69;64.21;52317.66;5106274;28;20202;-84
2023/12/09 08:09:36;;;;;;;3.07;2.30;;;;;;;-145.69;64.24;52335.47;5084988;28;20214;-85
2023/12/09 08:12:03;;;;;;;5.83;2.63;;;;;;;-145.69;63.91;52311.69;5083730;28;20668;-85
2023/12/09 08:14:29;;;;;;;7.60;3.00;;;;;;;-145.69;63.86;52313.69;5099270;28;20237;-84
2023/12/09 08:16:56;;;;;;;4.23;2.20;;;;;;;-145.69;63.92;52305.75;5099555;28;20202;-85
2023/12/09 08:19:23;;;;;;;5.57;2.80;;;;;;;-145.69;63.79;52345.38;5098380;28;20205;-85
2023/12/09 08:21:49;;;;;;;7.43;2.70;;;;;;;-145.69;63.37;52321.59;5099162;28;20187;-84
2023/12/09 08:24:17;;;;;;;5.20;2.70;;;;;;;-145.69;64.23;52333.47;5097119;28;20205;-85
2023/12/09 08:26:44;;;;;;;9.77;4.33;;;;;;;-145.69;63.01;52309.72;5095631;28;20198;-84
2023/12/09 08:29:14;;;;;;;19.40;8.43;;;;;;;-145.69;63.36;52319.63;5094963;28;20296;-85
2023/12/09 08:31:49;;;;;;;7.27;4.10;;;;;;;-145.69;62.74;52270.13;5094968;28;20230;-84
2023/12/09 08:34:27;;;;;;;5.93;2.63;;;;;;;-145.69;61.96;52278.03;5095971;28;20221;-85
2023/12/09 08:36:59;;;;;;;4.00;2.47;;;;;;;-145.69;61.49;52325.56;5095498;28;20206;-85
2023/12/09 08:39:30;;;;;;;5.20;3.33;;;;;;;-145.69;61.63;52301.81;5094764;28;20657;-85
2023/12/09 08:41:57;;;;;;;9.77;4.67;;;;;;;-145.69;60.38;52317.66;5094509;28;20194;-84
2023/12/09 08:44:23;;;;;;;6.63;3.40;;;;;;;-145.69;61.82;52278.03;5094967;28;20206;-85
2023/12/09 08:46:51;;;;;;;6.53;2.93;;;;;;;-145.69;59.87;52278.03;5094614;28;20229;-85
2023/12/09 08:49:18;;;;;;;7.13;4.00;;;;;;;-145.69;60.73;52301.81;5096502;28;20206;-84
2023/12/09 08:51:45;;;;;;;4.70;2.60;;;;;;;-145.69;61.09;52301.81;5102289;28;20213;-86
2023/12/09 08:54:12;;;;;;;4.13;2.60;;;;;;;-145.69;60.01;52282.00;5110097;28;20225;-84
2023/12/09 08:56:39;;;;;;;3.53;2.37;;;;;;;-145.69;60.31;52289.91;5100031;28;20190;-83
2023/12/09 08:59:07;;;;;;;3.67;1.80;;;;;;;-145.69;59.11;52321.59;5091991;28;20203;-83
2023/12/09 09:01:34;;;;;;;2.97;1.83;;;;;;;-145.69;59.94;52283.97;5092889;28;20201;-82
2023/12/09 09:04:01;;;;;;;5.30;1.97;;;;;;;-145.69;59.05;52307.75;5093707;28;20198;-81
2023/12/09 09:06:27;;;;;;;3.60;1.80;;;;;;;-145.69;59.16;52293.88;5093125;28;20198;-82
2023/12/09 09:08:54;;;;;;;3.90;1.80;;;;;;;-145.69;58.45;52276.06;5093093;28;20680;-82
2023/12/09 09:11:20;;;;;;;1.90;1.70;;;;;;;-145.69;58.48;52283.97;5094176;28;20202;-82
2023/12/09 09:13:48;;;;;;;4.40;2.13;;;;;;;-145.69;58.25;52264.16;5091911;28;20609;-82
2023/12/09 09:16:15;;;;;;;3.37;1.90;;;;;;;-145.69;57.59;52262.19;5093317;28;20194;-82
2023/12/09 09:18:42;;;;;;;2.70;1.50;;;;;;;-145.69;57.17;52285.97;5094157;28;20195;-83
2023/12/09 09:21:09;;;;;;;2.60;1.50;;;;;;;-145.69;57.25;52252.28;5092875;28;20195;-83
2023/12/09 09:23:35;;;;;;;2.90;1.60;;;;;;;-145.69;55.48;52303.78;5096165;28;20212;-84
2023/12/09 09:26:02;;;;;;;2.27;1.30;;;;;;;-145.69;56.63;52262.19;5096474;28;20194;-83
2023/12/09 09:28:28;;;;;;;2.50;1.50;;;;;;;-145.69;56.55;52282.00;5096907;28;20189;-82
2023/12/09 09:30:56;;;;;;;2.53;1.63;;;;;;;-145.69;54.75;52266.16;5100392;28;20210;-84
2023/12/09 09:33:23;;;;;;;1.73;1.37;;;;;;;-145.69;54.16;52274.06;5097172;28;20194;-84
2023/12/09 09:35:51;;;;;;;2.63;1.27;;;;;;;-145.69;53.90;52321.59;5096319;28;20186;-83
2023/12/09 09:38:17;;;;;;;2.87;1.53;;;;;;;-145.69;53.33;52278.03;5095747;28;20696;-83
2023/12/09 09:40:44;;;;;;;1.60;1.30;;;;;;;-145.69;53.36;52258.22;5094259;28;20205;-82
2023/12/09 09:43:21;;;;;;;2.43;1.30;;;;;;;-145.69;53.22;52250.31;5095508;28;20633;-84
2023/12/09 09:45:49;;;;;;;2.13;1.20;;;;;;;-145.69;52.70;52270.13;5095249;28;20205;-83
2023/12/09 09:48:18;;;;;;;1.70;1.23;;;;;;;-145.69;51.68;52266.16;5095888;28;20275;-83
2023/12/09 09:50:47;;;;;;;1.30;1.00;;;;;;;-145.69;52.46;52276.06;5095255;28;20671;-83
2023/12/09 09:53:16;;;;;;;1.30;0.90;;;;;;;-145.69;52.62;52250.31;5095757;28;20557;-82
2023/12/09 09:55:43;;;;;;;13.30;4.33;;;;;;;-145.69;52.26;52250.31;5095319;28;20217;-83
2023/12/09 09:58:10;;;;;;;2.73;1.83;;;;;;;-145.69;52.16;52232.50;5095112;28;20198;-83
2023/12/09 10:00:38;;;;;;;4.33;2.20;;;;;;;-145.69;52.16;52254.28;5094451;28;20194;-84
2023/12/09 10:03:05;;;;;;;2.33;1.60;;;;;;;-145.69;52.14;52238.44;5095317;28;20657;-84
2023/12/09 10:05:33;;;;;;;2.87;2.00;;;;;;;-145.69;52.36;52250.31;5094612;28;20226;-83
2023/12/09 10:08:00;;;;;;;2.60;1.40;;;;;;;-145.69;52.70;52212.69;5098111;28;20713;-84
2023/12/09 10:10:27;;;;;;;3.67;2.20;;;;;;;-145.69;53.28;52278.03;5096559;28;20194;-83
2023/12/09 10:12:54;;;;;;;2.33;1.53;;;;;;;-145.69;52.78;52262.19;5095533;28;20234;-83
2023/12/09 10:15:21;;;;;;;2.30;1.50;;;;;;;-145.69;53.34;52287.94;5097560;28;20218;-82
2023/12/09 10:17:47;;;;;;;2.93;2.00;;;;;;;-145.69;53.01;52297.84;5098448;28;20194;-82
2023/12/09 10:20:17;;;;;;;2.90;1.70;;;;;;;-145.69;53.11;52256.25;5097134;28;20202;-82
2023/12/09 10:22:47;;;;;;;4.47;3.13;;;;;;;-145.69;52.72;52258.22;5094729;28;20556;-82
2023/12/09 10:25:21;;;;;;;6.10;3.27;;;;;;;-145.69;52.79;52276.06;5097189;28;20209;-82
2023/12/09 10:27:47;;;;;;;3.93;1.87;;;;;;;-145.69;52.84;52268.13;5077472;28;20226;-82
2023/12/09 10:30:14;;;;;;;3.17;1.40;;;;;;;-145.69;52.76;52293.88;5079088;28;20289;-82
2023/12/09 10:32:41;;;;;;;2.10;1.50;;;;;;;-145.69;52.24;52246.34;5096469;28;20653;-82
2023/12/09 10:35:09;;;;;;;1.90;1.30;;;;;;;-145.69;52.48;52254.28;5100008;28;20229;-82
2023/12/09 10:37:35;;;;;;;2.40;1.50;;;;;;;-145.69;52.20;52258.22;5102985;28;20194;-82
2023/12/09 10:40:06;;;;;;;7.30;2.73;;;;;;;-145.69;51.91;52262.19;5103167;28;20199;-82
2023/12/09 10:42:33;;;;;;;4.47;1.97;;;;;;;-145.69;52.03;52270.13;5102261;28;20663;-83
2023/12/09 10:45:02;;;;;;;3.23;1.40;;;;;;;-145.69;52.36;52262.19;5101333;28;20202;-82
2023/12/09 10:47:30;;;;;;;5.93;3.20;;;;;;;-145.69;52.26;52266.16;5081148;28;20198;-82
2023/12/09 10:49:57;;;;;;;5.80;3.00;;;;;;;-145.69;52.31;52246.34;5082467;28;20264;-83
2023/12/09 10:52:24;;;;;;;3.63;2.40;;;;;;;-145.69;52.06;52260.22;5102724;28;20596;-83
2023/12/09 10:54:50;;;;;;;5.53;2.80;;;;;;;-145.69;52.54;52285.97;5103092;28;20236;-83
2023/12/09 10:57:19;;;;;;;2.83;1.90;;;;;;;-145.69;52.37;52226.53;5103707;28;20201;-83
2023/12/09 10:59:46;;;;;;;3.70;2.13;;;;;;;-145.69;52.16;52274.06;5103687;28;20194;-83
2023/12/09 11:02:16;;;;;;;3.93;1.93;;;;;;;-145.69;52.03;52250.31;5103248;28;20202;-83
2023/12/09 11:04:43;;;;;;;3.70;1.80;;;;;;;-145.69;51.91;52268.13;5101826;28;20213;-83
2023/12/09 11:07:11;;;;;;;4.20;2.20;;;;;;;-145.69;51.98;52226.53;5102555;28;20194;-83
2023/12/09 11:09:39;;;;;;;3.80;2.20;;;;;;;-145.69;52.07;52254.28;5101024;28;20261;-83
2023/12/09 11:12:06;;;;;;;2.83;1.77;;;;;;;-145.69;52.14;52230.50;5102174;28;20665;-83
2023/12/09 11:14:34;;;;;;;3.47;1.90;;;;;;;-145.69;51.97;52240.41;5101238;28;20260;-84
2023/12/09 11:17:01;;;;;;;3.70;2.00;;;;;;;-145.69;52.19;52260.22;5101126;28;20200;-84
2023/12/09 11:19:28;;;;;;;3.53;2.10;;;;;;;-145.69;51.92;52238.44;5101101;28;20198;-84